Time;durP1;ratioP1;P1;durP2;ratioP2;P2;SDS_P1;SDS_P2;PMS_P1;PMS_P2;Temp;Humidity;BMP_temperature;BMP_pressure;BME280_temperature;BME280_humidity;BME280_pressure;Samples;Min_cycle;Max_cycle;Signal;HPM_P1;HPM_P2
2022/05/19 00:02:13;;;;;;;8.05;6.55;;;;;;;23.58;50.10;100123.03;4974071;28;20051;-82
2022/05/19 00:04:40;;;;;;;6.45;4.93;;;;;;;23.55;49.70;100116.13;4974743;28;20093;-82
2022/05/19 00:07:08;;;;;;;5.35;4.75;;;;;;;23.54;49.42;100109.06;4974641;28;20164;-81
2022/05/19 00:09:35;;;;;;;6.20;4.43;;;;;;;23.54;49.75;100112.59;4973557;28;20054;-81
2022/05/19 00:12:09;;;;;;;5.13;4.25;;;;;;;23.52;49.78;100106.53;4974357;28;20094;-81
2022/05/19 00:14:35;;;;;;;4.35;3.70;;;;;;;23.53;49.18;100105.56;4974214;28;20452;-81
2022/05/19 00:17:03;;;;;;;3.95;3.53;;;;;;;23.53;49.16;100105.56;4974462;28;20121;-82
2022/05/19 00:19:29;;;;;;;6.35;3.60;;;;;;;23.53;48.65;100102.88;4973105;28;20047;-83
2022/05/19 00:21:56;;;;;;;3.90;3.28;;;;;;;23.54;48.55;100104.53;4973793;28;20058;-84
2022/05/19 00:24:23;;;;;;;4.20;3.20;;;;;;;23.55;48.48;100108.91;4973487;28;20117;-83
2022/05/19 00:26:49;;;;;;;4.15;3.00;;;;;;;23.57;48.52;100111.44;4973485;28;20054;-81
2022/05/19 00:29:16;;;;;;;5.03;3.45;;;;;;;23.58;48.39;100105.03;4973489;28;20050;-81
2022/05/19 00:31:42;;;;;;;5.88;3.05;;;;;;;23.61;48.14;100106.56;4973539;28;20338;-81
2022/05/19 00:34:09;;;;;;;6.72;3.17;;;;;;;23.63;48.38;100096.50;4973543;28;20086;-81
2022/05/19 00:36:36;;;;;;;4.80;2.97;;;;;;;23.66;47.97;100102.38;4956853;28;20109;-81
2022/05/19 00:39:03;;;;;;;3.95;2.80;;;;;;;23.68;47.73;100103.06;4973810;28;20074;-81
2022/05/19 00:41:30;;;;;;;5.35;2.80;;;;;;;23.71;47.88;100101.03;4973401;28;20047;-81
2022/05/19 00:44:05;;;;;;;3.20;2.78;;;;;;;23.69;47.48;100099.38;4973188;28;20105;-81
2022/05/19 00:46:45;;;;;;;4.38;2.88;;;;;;;23.72;47.66;100102.72;4973382;28;20047;-81
2022/05/19 00:49:35;;;;;;;4.00;2.58;;;;;;;23.71;47.48;100104.56;4973628;28;20625;-81
2022/05/19 00:52:09;;;;;;;3.28;2.55;;;;;;;23.76;47.30;100109.44;4973128;28;20050;-83
2022/05/19 00:54:40;;;;;;;4.63;2.50;;;;;;;23.75;47.33;100107.75;4956368;28;20047;-81
2022/05/19 00:57:23;;;;;;;6.35;2.47;;;;;;;23.72;47.07;100103.56;4973181;28;20114;-81
2022/05/19 00:59:52;;;;;;;3.33;2.35;;;;;;;23.75;47.26;100105.94;4972010;28;20062;-81
2022/05/19 01:02:22;;;;;;;4.20;2.83;;;;;;;23.74;47.32;100106.09;4972919;28;20055;-81
2022/05/19 01:05:01;;;;;;;4.25;2.67;;;;;;;23.69;46.77;100101.19;4972959;28;20059;-80
2022/05/19 01:07:32;;;;;;;4.13;2.13;;;;;;;23.70;47.02;100100.22;4972447;28;20098;-82
2022/05/19 01:09:59;;;;;;;2.67;2.15;;;;;;;23.71;46.89;100099.19;4972855;28;20434;-81
2022/05/19 01:12:28;;;;;;;3.15;2.13;;;;;;;23.68;47.02;100097.69;4974254;28;20086;-81
2022/05/19 01:14:55;;;;;;;4.28;2.35;;;;;;;23.67;46.78;100093.28;4972687;28;20082;-81
2022/05/19 01:17:26;;;;;;;5.32;2.42;;;;;;;23.68;46.69;100099.53;4973012;28;20125;-81
2022/05/19 01:20:00;;;;;;;3.40;2.50;;;;;;;23.63;47.14;100093.81;4955528;28;20094;-82
2022/05/19 01:22:42;;;;;;;3.83;2.63;;;;;;;23.60;46.72;100092.28;4972838;28;20051;-81
2022/05/19 01:25:21;;;;;;;3.47;2.50;;;;;;;23.59;46.51;100100.53;4973755;28;20496;-81
2022/05/19 01:27:49;;;;;;;5.85;2.45;;;;;;;23.60;46.80;100088.75;4973060;28;20117;-81
2022/05/19 01:30:15;;;;;;;3.72;2.65;;;;;;;23.59;46.82;100093.31;4972828;28;20050;-81
2022/05/19 01:32:42;;;;;;;3.65;2.38;;;;;;;23.57;47.02;100098.00;4972706;28;20055;-80
2022/05/19 01:35:09;;;;;;;4.10;2.58;;;;;;;23.54;46.87;100092.94;4972491;28;20098;-81
2022/05/19 01:37:36;;;;;;;2.10;1.92;;;;;;;23.53;46.98;100085.88;4972499;28;20059;-80
2022/05/19 01:40:31;;;;;;;4.55;2.08;;;;;;;23.47;47.00;100091.94;4972499;28;20055;-81
2022/05/19 01:43:21;;;;;;;2.90;2.38;;;;;;;23.44;46.83;100087.72;4972269;28;20109;-81
2022/05/19 01:45:50;;;;;;;4.18;2.50;;;;;;;23.47;46.71;100086.56;4972448;28;20055;-82
2022/05/19 01:48:28;;;;;;;6.30;2.38;;;;;;;23.43;46.64;100088.72;4972277;28;20062;-82
2022/05/19 01:51:12;;;;;;;2.45;2.20;;;;;;;23.39;46.77;100085.53;4972450;28;20043;-81
2022/05/19 01:54:05;;;;;;;4.20;2.03;;;;;;;23.39;46.68;100076.63;4972462;28;20051;-82
2022/05/19 01:56:41;;;;;;;3.00;2.20;;;;;;;23.39;46.87;100077.47;4954950;28;20397;-81
2022/05/19 01:59:26;;;;;;;2.63;2.00;;;;;;;23.37;46.95;100066.06;4972878;28;20055;-81
2022/05/19 02:02:02;;;;;;;3.08;2.15;;;;;;;23.36;46.62;100071.59;4972012;28;20753;-81
2022/05/19 02:04:58;;;;;;;3.65;2.38;;;;;;;23.34;46.69;100068.22;4972119;28;20129;-81
2022/05/19 02:07:26;;;;;;;3.05;2.13;;;;;;;23.35;46.63;100068.06;4971790;28;20198;-82
2022/05/19 02:09:59;;;;;;;3.60;2.10;;;;;;;23.32;46.76;100073.72;4972244;28;20113;-81
2022/05/19 02:12:27;;;;;;;3.15;2.35;;;;;;;23.30;46.65;100063.13;4972145;28;20051;-84
2022/05/19 02:14:58;;;;;;;3.78;2.20;;;;;;;23.28;46.80;100062.47;4972157;28;20055;-81
2022/05/19 02:17:28;;;;;;;4.00;2.30;;;;;;;23.27;46.68;100055.41;4971679;28;20058;-81
2022/05/19 02:19:58;;;;;;;4.35;2.80;;;;;;;23.24;46.69;100050.38;4975209;28;20051;-82
2022/05/19 02:22:31;;;;;;;2.97;2.25;;;;;;;23.23;46.80;100053.22;4975450;28;20050;-82
2022/05/19 02:25:11;;;;;;;3.30;2.45;;;;;;;23.20;46.49;100056.22;4975439;28;20415;-81
2022/05/19 02:27:47;;;;;;;2.42;2.15;;;;;;;23.21;46.77;100055.22;4957855;28;20062;-81
2022/05/19 02:30:19;;;;;;;4.55;2.22;;;;;;;23.17;46.59;100050.19;4975212;28;20055;-82
2022/05/19 02:32:46;;;;;;;3.35;1.98;;;;;;;23.16;46.53;100053.88;4974909;28;20047;-82
2022/05/19 02:35:13;;;;;;;4.68;2.30;;;;;;;23.15;46.76;100049.53;4974645;28;20501;-83
2022/05/19 02:37:40;;;;;;;3.30;2.33;;;;;;;23.13;46.90;100047.97;4956940;28;20109;-82
2022/05/19 02:40:08;;;;;;;5.75;2.10;;;;;;;23.12;46.71;100051.66;4974261;28;20058;-82
2022/05/19 02:42:34;;;;;;;4.35;2.55;;;;;;;23.09;46.48;100049.31;4973787;28;20062;-82
2022/05/19 02:45:01;;;;;;;4.55;2.33;;;;;;;23.07;46.82;100040.59;4974720;28;20497;-83
2022/05/19 02:47:27;;;;;;;7.43;2.70;;;;;;;23.03;47.01;100034.72;4974181;28;20495;-83
2022/05/19 02:49:54;;;;;;;8.85;2.72;;;;;;;23.00;46.94;100043.94;4974223;28;20102;-82
2022/05/19 02:52:20;;;;;;;6.07;2.70;;;;;;;22.99;47.13;100036.03;4973676;28;20101;-83
2022/05/19 02:54:47;;;;;;;10.45;2.58;;;;;;;22.96;46.83;100037.19;4972828;28;20059;-83
2022/05/19 02:57:13;;;;;;;6.20;2.45;;;;;;;22.94;47.06;100039.19;4973810;28;20114;-83
2022/05/19 02:59:40;;;;;;;9.40;2.45;;;;;;;22.91;46.81;100039.50;4974119;28;20109;-84
2022/05/19 03:02:06;;;;;;;4.53;2.45;;;;;;;22.89;47.14;100042.38;4973960;28;20394;-84
2022/05/19 03:04:33;;;;;;;2.55;2.17;;;;;;;22.87;46.60;100038.16;4974351;28;20479;-84
2022/05/19 03:06:59;;;;;;;4.65;3.00;;;;;;;22.84;47.14;100033.94;4974509;28;20088;-84
2022/05/19 03:09:26;;;;;;;3.70;2.55;;;;;;;22.84;47.22;100033.13;4956112;28;20401;-82
2022/05/19 03:11:52;;;;;;;4.68;2.70;;;;;;;22.83;47.28;100044.88;4973760;28;20054;-84
2022/05/19 03:14:19;;;;;;;3.28;2.35;;;;;;;22.82;47.07;100037.78;4973893;28;20051;-84
2022/05/19 03:16:46;;;;;;;6.70;2.53;;;;;;;22.81;46.94;100038.81;4974357;28;20050;-84
2022/05/19 03:19:14;;;;;;;3.05;2.10;;;;;;;22.80;47.16;100037.13;4976444;28;20106;-81
2022/05/19 03:21:42;;;;;;;3.90;2.58;;;;;;;22.80;47.22;100042.50;4977410;28;20105;-82
2022/05/19 03:24:11;;;;;;;3.53;2.40;;;;;;;22.77;47.18;100031.06;4976882;28;20051;-83
2022/05/19 03:26:38;;;;;;;3.92;2.55;;;;;;;22.78;47.07;100040.81;4977842;28;20130;-81
2022/05/19 03:29:05;;;;;;;3.13;2.47;;;;;;;22.78;46.85;100034.59;4977221;28;20050;-81
2022/05/19 03:31:33;;;;;;;3.33;2.53;;;;;;;22.76;46.79;100037.44;4977705;28;20051;-82
2022/05/19 03:34:04;;;;;;;4.32;2.58;;;;;;;22.75;46.95;100041.13;4977298;28;20069;-82
2022/05/19 03:36:30;;;;;;;3.45;2.40;;;;;;;22.77;46.77;100049.03;4977221;28;20082;-83
2022/05/19 03:38:57;;;;;;;4.03;2.40;;;;;;;22.75;46.60;100049.19;4976793;28;20055;-83
2022/05/19 03:41:23;;;;;;;4.00;2.47;;;;;;;22.75;47.08;100051.88;4975306;28;20121;-83
2022/05/19 03:43:50;;;;;;;4.65;2.53;;;;;;;22.75;46.95;100051.00;4976992;28;20121;-83
2022/05/19 03:46:17;;;;;;;4.13;2.60;;;;;;;22.75;47.22;100043.81;4976925;28;20055;-82
2022/05/19 03:48:43;;;;;;;5.13;2.75;;;;;;;22.76;47.05;100050.84;4976693;28;20055;-81
2022/05/19 03:51:22;;;;;;;3.88;2.58;;;;;;;22.76;46.93;100050.84;4975776;28;20109;-84
2022/05/19 03:53:50;;;;;;;4.88;2.63;;;;;;;22.76;46.86;100053.53;4976245;28;20051;-81
2022/05/19 03:56:18;;;;;;;4.55;2.45;;;;;;;22.78;46.61;100050.69;4975891;28;20046;-83
2022/05/19 03:58:45;;;;;;;11.10;2.97;;;;;;;22.77;47.00;100052.53;4976404;28;20468;-81
2022/05/19 04:01:12;;;;;;;2.88;2.40;;;;;;;22.78;46.80;100064.97;4975195;28;20058;-82
2022/05/19 04:03:39;;;;;;;4.10;2.60;;;;;;;22.80;47.04;100063.97;4957762;28;20051;-83
2022/05/19 04:06:06;;;;;;;5.40;2.28;;;;;;;22.79;46.45;100063.13;4977168;28;20090;-81
2022/05/19 04:08:33;;;;;;;5.78;2.78;;;;;;;22.81;46.85;100049.53;4975872;28;20493;-81
2022/05/19 04:11:00;;;;;;;3.80;2.40;;;;;;;22.81;46.83;100054.91;4973360;28;20070;-81
2022/05/19 04:13:26;;;;;;;4.68;2.50;;;;;;;22.82;46.94;100052.06;4970272;28;20047;-83
2022/05/19 04:15:53;;;;;;;4.88;2.58;;;;;;;22.83;46.95;100052.91;4965809;28;20086;-83
2022/05/19 04:18:20;;;;;;;2.75;2.20;;;;;;;22.84;46.67;100057.28;4957709;29;20086;-81
2022/05/19 04:20:46;;;;;;;2.88;2.33;;;;;;;22.84;46.63;100059.97;4957698;29;20050;-81
2022/05/19 04:23:13;;;;;;;4.68;2.40;;;;;;;22.84;46.80;100065.31;4957921;29;20055;-80
2022/05/19 04:25:41;;;;;;;4.90;2.38;;;;;;;22.86;46.81;100058.78;4958306;29;20122;-81
2022/05/19 04:28:09;;;;;;;3.88;2.38;;;;;;;22.88;46.80;100072.06;4957693;29;20476;-81
2022/05/19 04:30:36;;;;;;;3.03;2.60;;;;;;;22.89;46.79;100063.00;4956739;29;20051;-81
2022/05/19 04:33:03;;;;;;;4.32;2.60;;;;;;;22.91;46.70;100066.34;4956461;29;20055;-81
2022/05/19 04:35:31;;;;;;;6.68;2.90;;;;;;;22.93;46.64;100075.09;4956800;29;20051;-83
2022/05/19 04:38:06;;;;;;;2.67;2.40;;;;;;;22.93;46.73;100063.50;4957760;29;20055;-83
2022/05/19 04:40:37;;;;;;;5.45;2.38;;;;;;;22.96;46.52;100069.41;4957206;28;20116;-82
2022/05/19 04:43:10;;;;;;;4.07;2.63;;;;;;;23.00;47.00;100069.91;4957751;29;20062;-83
2022/05/19 04:45:37;;;;;;;4.18;2.55;;;;;;;23.01;46.56;100060.84;4957214;29;20066;-82
2022/05/19 04:48:04;;;;;;;3.67;2.22;;;;;;;23.03;46.63;100066.91;4957248;29;20083;-83
2022/05/19 04:50:31;;;;;;;4.35;2.67;;;;;;;23.07;46.83;100064.75;4956659;29;20063;-82
2022/05/19 04:52:58;;;;;;;3.58;2.40;;;;;;;23.09;46.72;100068.94;4956469;29;20051;-84
2022/05/19 04:55:26;;;;;;;5.63;2.33;;;;;;;23.11;46.60;100060.72;4954970;29;20059;-85
2022/05/19 04:57:53;;;;;;;3.65;2.47;;;;;;;23.13;46.67;100064.09;4938344;29;20055;-84
2022/05/19 05:00:20;;;;;;;2.42;2.22;;;;;;;23.15;46.51;100064.78;4955548;29;20185;-83
2022/05/19 05:02:46;;;;;;;2.60;2.40;;;;;;;23.17;46.59;100070.81;4954400;29;20055;-84
2022/05/19 05:05:14;;;;;;;4.32;2.50;;;;;;;23.19;46.70;100071.50;4955931;29;20055;-83
2022/05/19 05:07:40;;;;;;;4.65;2.58;;;;;;;23.21;46.72;100068.66;4956079;29;20047;-86
2022/05/19 05:10:07;;;;;;;8.38;2.63;;;;;;;23.23;46.30;100069.31;4955982;29;20047;-84
2022/05/19 05:12:34;;;;;;;3.58;2.08;;;;;;;23.24;46.27;100066.47;4956129;29;20098;-86
2022/05/19 05:15:01;;;;;;;3.08;2.20;;;;;;;23.26;46.11;100067.19;4956581;29;20403;-85
2022/05/19 05:17:27;;;;;;;5.28;2.67;;;;;;;23.28;46.84;100067.84;4955381;29;20552;-85
2022/05/19 05:19:54;;;;;;;4.80;2.35;;;;;;;23.31;46.40;100069.34;4940101;29;20051;-84
2022/05/19 05:22:20;;;;;;;2.40;2.08;;;;;;;23.35;46.68;100069.88;4956492;29;20055;-84
2022/05/19 05:24:47;;;;;;;3.92;2.38;;;;;;;23.38;46.62;100062.38;4938242;29;20117;-84
2022/05/19 05:27:13;;;;;;;6.25;2.70;;;;;;;23.43;46.44;100075.28;4957182;29;20502;-83
2022/05/19 05:29:40;;;;;;;6.20;2.70;;;;;;;23.48;46.59;100067.59;4957434;29;20051;-84
2022/05/19 05:32:07;;;;;;;5.65;2.55;;;;;;;23.52;46.65;100076.16;4956706;29;20055;-84
2022/05/19 05:34:34;;;;;;;3.97;2.50;;;;;;;23.56;46.61;100067.59;4957083;29;20047;-84
2022/05/19 05:37:03;;;;;;;4.47;2.30;;;;;;;23.63;46.37;100072.31;4939868;29;20055;-83
2022/05/19 05:39:30;;;;;;;6.22;2.60;;;;;;;23.70;46.30;100062.59;4955196;29;20059;-84
2022/05/19 05:42:01;;;;;;;3.80;2.47;;;;;;;23.77;46.14;100062.75;4954434;29;20055;-84
2022/05/19 05:44:27;;;;;;;3.50;2.47;;;;;;;23.85;46.02;100062.75;4954959;29;20047;-83
2022/05/19 05:46:54;;;;;;;3.30;2.38;;;;;;;23.91;46.06;100058.56;4956541;29;20058;-83
2022/05/19 05:49:20;;;;;;;4.20;2.45;;;;;;;23.98;46.01;100058.72;4967389;28;20176;-85
2022/05/19 05:51:48;;;;;;;4.10;2.33;;;;;;;24.03;45.92;100057.22;4958795;28;20050;-83
2022/05/19 05:54:15;;;;;;;3.75;2.47;;;;;;;24.09;45.97;100053.00;4958890;28;20114;-84
2022/05/19 05:56:41;;;;;;;3.28;2.17;;;;;;;24.14;45.39;100060.63;4961092;29;20425;-85
2022/05/19 05:59:08;;;;;;;5.43;2.40;;;;;;;24.19;45.79;100063.63;4955479;29;20055;-85
2022/05/19 06:01:34;;;;;;;4.05;2.38;;;;;;;24.23;45.21;100073.03;4961107;29;20055;-83
2022/05/19 06:04:02;;;;;;;2.45;2.13;;;;;;;24.25;45.33;100062.94;4961459;29;20486;-83
2022/05/19 06:06:29;;;;;;;5.38;2.33;;;;;;;24.29;45.25;100066.97;4961353;28;20122;-84
2022/05/19 06:08:55;;;;;;;4.53;2.30;;;;;;;24.32;45.50;100068.47;4961537;28;20554;-85
2022/05/19 06:11:28;;;;;;;2.45;2.08;;;;;;;24.36;45.11;100069.81;4961396;28;20059;-83
2022/05/19 06:13:55;;;;;;;5.20;2.85;;;;;;;24.40;44.95;100067.66;4960240;28;20047;-83
2022/05/19 06:16:21;;;;;;;3.38;2.28;;;;;;;24.43;45.27;100073.50;4961050;29;20417;-85
2022/05/19 06:18:48;;;;;;;2.63;2.10;;;;;;;24.46;44.73;100080.41;4961316;28;20492;-81
2022/05/19 06:21:15;;;;;;;3.75;2.40;;;;;;;24.49;44.99;100092.66;4961246;29;20047;-83
2022/05/19 06:23:42;;;;;;;3.25;2.67;;;;;;;24.52;44.76;100101.22;4960967;29;20058;-83
2022/05/19 06:26:08;;;;;;;3.42;2.40;;;;;;;24.53;44.74;100105.63;4962047;29;20422;-84
2022/05/19 06:28:35;;;;;;;4.30;2.60;;;;;;;24.56;44.97;100110.63;4960756;29;20421;-84
2022/05/19 06:31:01;;;;;;;4.97;2.95;;;;;;;24.58;44.82;100143.63;4959157;29;20189;-84
2022/05/19 06:33:29;;;;;;;7.15;2.80;;;;;;;24.58;45.05;100146.31;4960469;29;20048;-84
2022/05/19 06:35:55;;;;;;;7.38;3.00;;;;;;;24.59;44.81;100129.16;4960645;28;20059;-84
2022/05/19 06:38:22;;;;;;;3.13;2.83;;;;;;;24.58;45.14;100132.00;4961388;29;20059;-85
2022/05/19 06:40:49;;;;;;;5.53;2.55;;;;;;;24.54;45.41;100155.75;4961004;29;20339;-84
2022/05/19 06:43:24;;;;;;;7.90;2.83;;;;;;;24.51;45.61;100121.09;4961025;28;20051;-84
2022/05/19 06:45:51;;;;;;;4.80;3.13;;;;;;;24.46;45.17;100104.63;4961704;28;20420;-84
2022/05/19 06:48:18;;;;;;;3.85;3.28;;;;;;;24.40;45.39;100129.53;4961212;29;20055;-84
2022/05/19 06:50:44;;;;;;;4.10;3.20;;;;;;;24.36;45.63;100142.44;4958840;29;20462;-85
2022/05/19 06:53:12;;;;;;;5.43;3.47;;;;;;;24.34;45.50;100131.03;4960166;29;20047;-84
2022/05/19 06:55:39;;;;;;;5.85;3.92;;;;;;;24.32;45.55;100107.00;4961942;29;20126;-83
2022/05/19 06:58:06;;;;;;;5.20;3.47;;;;;;;24.33;45.95;100135.56;4961260;29;20099;-83
2022/05/19 07:00:34;;;;;;;5.03;3.47;;;;;;;24.36;46.05;100110.16;4959378;29;20106;-84
2022/05/19 07:03:01;;;;;;;4.70;3.22;;;;;;;24.40;45.63;100098.06;4960284;28;20055;-85
2022/05/19 07:05:31;;;;;;;3.50;2.97;;;;;;;24.44;45.91;100125.44;4961404;28;20051;-84
2022/05/19 07:07:58;;;;;;;5.60;2.97;;;;;;;24.51;45.67;100120.25;4962397;28;20047;-83
2022/05/19 07:10:26;;;;;;;5.20;3.28;;;;;;;24.55;46.09;100111.66;4961966;29;20305;-84
2022/05/19 07:12:54;;;;;;;3.50;3.20;;;;;;;24.60;45.67;100109.28;4961648;29;20047;-84
2022/05/19 07:15:21;;;;;;;5.65;3.08;;;;;;;24.66;45.49;100115.84;4962391;29;20106;-85
2022/05/19 07:17:48;;;;;;;8.55;3.40;;;;;;;24.69;45.32;100096.66;4962320;28;20051;-83
2022/05/19 07:23:01;;;;;;;4.82;2.85;;;;;;;24.78;45.45;100112.81;4962613;29;20059;-85
2022/05/19 07:25:28;;;;;;;3.80;3.15;;;;;;;24.82;45.32;100106.06;4962359;28;20082;-85
2022/05/19 07:27:55;;;;;;;5.75;3.38;;;;;;;24.86;45.73;100118.19;4962400;29;20473;-84
2022/05/19 07:30:22;;;;;;;6.57;3.33;;;;;;;24.90;45.54;100114.16;4961964;29;20065;-83
2022/05/19 07:32:49;;;;;;;7.32;3.13;;;;;;;24.95;45.32;100108.22;4961606;29;20134;-86
2022/05/19 07:35:16;;;;;;;6.68;3.97;;;;;;;24.98;45.34;100108.72;4962082;28;20098;-85
2022/05/19 07:37:42;;;;;;;4.10;3.70;;;;;;;25.03;45.30;100112.72;4962937;28;20196;-83
2022/05/19 07:40:11;;;;;;;4.07;3.40;;;;;;;25.07;45.01;100114.91;4960645;28;20425;-85
2022/05/19 07:42:38;;;;;;;5.05;2.90;;;;;;;25.12;45.01;100106.31;4963672;28;20402;-84
2022/05/19 07:45:05;;;;;;;4.22;3.08;;;;;;;25.18;44.82;100107.47;4962938;29;20047;-84
2022/05/19 07:47:32;;;;;;;5.90;2.97;;;;;;;25.26;44.88;100112.00;4962773;29;20054;-85
2022/05/19 07:49:59;;;;;;;6.55;3.13;;;;;;;25.33;44.64;100100.31;4963742;29;20509;-84
2022/05/19 07:52:32;;;;;;;5.53;3.40;;;;;;;25.44;45.11;100095.53;4963226;28;20063;-85
2022/05/19 07:55:00;;;;;;;5.57;3.03;;;;;;;25.53;44.83;100104.44;4960592;29;20083;-85
2022/05/19 07:57:27;;;;;;;6.03;3.30;;;;;;;25.63;44.46;100089.75;4961511;29;20525;-84
2022/05/19 07:59:53;;;;;;;4.60;2.88;;;;;;;25.76;44.64;100088.31;4964002;29;20059;-85
2022/05/19 08:02:20;;;;;;;4.30;3.03;;;;;;;25.86;44.19;100080.81;4963382;29;20055;-85
2022/05/19 08:04:46;;;;;;;4.13;3.05;;;;;;;25.98;44.91;100072.31;4963771;29;20098;-84
2022/05/19 08:07:13;;;;;;;5.28;3.08;;;;;;;26.09;44.42;100079.13;4963630;29;20058;-83
2022/05/19 08:15:34;;;;;;;4.28;3.13;;;;;;;26.46;43.47;100080.13;4963507;28;20043;-85
2022/05/19 08:18:13;;;;;;;5.20;3.22;;;;;;;26.53;43.75;100080.22;4963272;28;20059;-85
2022/05/19 08:20:43;;;;;;;3.33;2.90;;;;;;;26.64;43.34;100081.63;4964747;29;20051;-85
2022/05/19 08:23:17;;;;;;;5.10;3.38;;;;;;;26.69;43.14;100070.28;4964608;28;20054;-85
2022/05/19 08:25:44;;;;;;;4.40;3.28;;;;;;;26.75;43.22;100077.63;4963556;29;20051;-85
2022/05/19 08:28:14;;;;;;;4.13;3.17;;;;;;;26.82;43.61;100069.63;4963550;28;20059;-85
2022/05/19 08:30:47;;;;;;;4.85;3.85;;;;;;;26.86;42.95;100058.25;4963525;28;20370;-85
2022/05/19 08:33:16;;;;;;;5.05;3.25;;;;;;;26.94;43.29;100054.63;4963717;28;20055;-85
2022/05/19 08:35:43;;;;;;;3.97;2.70;;;;;;;27.00;43.39;100043.09;4964278;28;20482;-84
2022/05/19 08:38:10;;;;;;;5.95;3.25;;;;;;;27.07;43.70;100040.47;4964126;28;20437;-85
2022/05/19 08:40:43;;;;;;;4.78;2.95;;;;;;;27.11;43.23;100028.28;4963957;28;20055;-85
2022/05/19 08:43:14;;;;;;;5.03;3.20;;;;;;;27.17;43.09;100026.69;4965200;29;20055;-83
2022/05/19 08:45:45;;;;;;;7.18;3.40;;;;;;;27.20;42.71;100020.88;4967525;29;20059;-85
2022/05/19 08:48:15;;;;;;;4.85;3.05;;;;;;;27.23;42.54;100019.66;4968760;29;20517;-84
2022/05/19 08:50:59;;;;;;;5.50;3.10;;;;;;;27.25;43.33;100025.72;4966944;29;20059;-84
2022/05/19 08:53:32;;;;;;;4.47;3.45;;;;;;;27.29;43.27;100019.72;4969451;29;20055;-84
2022/05/19 08:56:19;;;;;;;5.82;3.13;;;;;;;27.34;43.15;100010.19;4968000;29;20051;-86
2022/05/19 08:59:20;;;;;;;3.53;2.75;;;;;;;27.40;42.79;99999.44;4960021;29;20648;-85
2022/05/19 09:02:12;;;;;;;5.30;2.70;;;;;;;27.51;42.75;99998.09;4955486;28;20118;-84
2022/05/19 09:05:06;;;;;;;5.53;3.83;;;;;;;27.58;42.75;99993.59;4955026;29;20048;-83
2022/05/19 09:07:58;;;;;;;3.38;3.03;;;;;;;27.68;41.97;99987.91;4955763;28;20126;-82
2022/05/19 09:10:50;;;;;;;4.10;3.25;;;;;;;27.66;42.04;99984.53;4955607;28;20047;-83
2022/05/19 09:13:34;;;;;;;4.72;3.15;;;;;;;27.65;41.62;99990.13;4955178;29;20466;-83
2022/05/19 09:16:11;;;;;;;5.50;2.97;;;;;;;27.64;41.79;99980.34;4955105;29;20114;-83
2022/05/19 09:18:42;;;;;;;4.20;2.60;;;;;;;27.64;41.58;99986.63;4954694;29;20465;-83
2022/05/19 09:21:09;;;;;;;5.15;2.95;;;;;;;27.62;41.57;99977.84;4955004;28;20300;-83
2022/05/19 09:23:36;;;;;;;4.53;2.83;;;;;;;27.61;41.79;99984.28;4954378;28;20106;-83
2022/05/19 09:26:27;;;;;;;3.80;2.70;;;;;;;27.57;43.00;100000.03;4955114;29;20106;-83
2022/05/19 09:29:16;;;;;;;3.42;2.58;;;;;;;27.61;42.45;100000.50;4958458;28;20058;-83
2022/05/19 09:31:53;;;;;;;3.95;2.47;;;;;;;27.66;42.52;99995.34;4958152;28;20113;-84
2022/05/19 09:34:26;;;;;;;4.18;2.83;;;;;;;27.74;42.11;99997.09;4959422;29;20051;-85
2022/05/19 09:37:15;;;;;;;3.60;2.53;;;;;;;27.79;41.89;99996.50;4958635;28;20062;-85
2022/05/19 09:39:52;;;;;;;2.88;2.58;;;;;;;27.88;42.37;99989.91;4958867;29;20082;-83
2022/05/19 09:42:33;;;;;;;7.75;3.00;;;;;;;27.91;42.19;99984.13;4958602;29;20059;-83
2022/05/19 09:45:00;;;;;;;3.42;2.33;;;;;;;28.00;41.67;99981.28;4958180;28;20054;-85
2022/05/19 09:47:33;;;;;;;5.57;2.90;;;;;;;28.01;41.23;99988.34;4958248;29;20505;-83
2022/05/19 09:50:37;;;;;;;7.03;2.70;;;;;;;28.02;42.35;99990.84;4958627;28;20085;-84
2022/05/19 09:53:15;;;;;;;4.65;2.75;;;;;;;28.15;42.75;99992.84;4928299;29;20540;-85
2022/05/19 09:55:42;;;;;;;3.65;2.28;;;;;;;28.27;42.68;99989.59;4958857;28;20051;-84
2022/05/19 09:58:14;;;;;;;4.13;2.70;;;;;;;28.37;42.13;99991.94;4958345;28;20062;-83
2022/05/19 10:00:56;;;;;;;2.85;2.60;;;;;;;28.47;42.07;99993.25;4958427;29;20401;-84
2022/05/19 10:03:36;;;;;;;4.53;2.97;;;;;;;28.58;42.36;99994.56;4956955;29;20058;-83
2022/05/19 10:06:06;;;;;;;4.35;2.90;;;;;;;28.70;42.38;99980.44;4957728;29;20048;-83
2022/05/19 10:08:39;;;;;;;3.95;2.72;;;;;;;28.82;41.83;99981.50;4958729;28;20067;-83
2022/05/19 10:11:13;;;;;;;3.53;3.10;;;;;;;28.94;40.95;99981.81;4957326;28;20098;-84
2022/05/19 10:14:14;;;;;;;4.22;2.80;;;;;;;29.06;40.95;99978.50;4957196;29;20109;-84
2022/05/19 10:17:01;;;;;;;6.88;2.90;;;;;;;29.20;40.74;99976.66;4957310;29;20059;-85
2022/05/19 10:19:52;;;;;;;4.03;2.58;;;;;;;29.34;40.69;99982.94;4955532;28;20055;-83
2022/05/19 10:22:43;;;;;;;5.22;2.88;;;;;;;29.49;40.06;99980.84;4964375;28;20149;-83
2022/05/19 10:25:40;;;;;;;3.70;2.65;;;;;;;29.63;39.87;99991.72;4971671;28;20069;-83
2022/05/19 10:31:49;;;;;;;3.55;2.58;;;;;;;29.93;39.73;99990.50;4955225;29;20048;-83
2022/05/19 10:34:40;;;;;;;2.63;2.15;;;;;;;30.01;39.20;99977.53;4955220;29;20083;-83
2022/05/19 10:37:24;;;;;;;2.22;2.00;;;;;;;30.18;39.03;99990.69;4955481;29;20494;-83
2022/05/19 10:40:10;;;;;;;5.55;2.75;;;;;;;30.30;39.42;99986.28;4954318;28;20093;-83
2022/05/19 10:43:07;;;;;;;3.75;2.70;;;;;;;30.52;39.17;99979.72;4953530;29;20394;-83
2022/05/19 10:45:39;;;;;;;3.85;2.67;;;;;;;30.82;39.38;99965.63;4967658;28;20055;-83
2022/05/19 10:48:40;;;;;;;4.80;2.95;;;;;;;31.12;38.76;99966.91;4974328;28;20047;-84
2022/05/19 10:51:14;;;;;;;3.80;2.60;;;;;;;31.56;38.28;99962.47;4974015;28;20050;-83
2022/05/19 10:54:03;;;;;;;8.23;2.55;;;;;;;32.00;37.98;99958.09;4973860;28;20464;-83
2022/05/19 10:56:52;;;;;;;3.72;2.20;;;;;;;32.55;37.04;99967.38;4956670;28;20066;-84
2022/05/19 10:59:31;;;;;;;4.53;2.47;;;;;;;33.13;37.69;99949.63;4974797;28;20058;-84
2022/05/19 11:02:36;;;;;;;3.40;2.40;;;;;;;33.69;36.39;99944.97;4973439;28;20055;-84
2022/05/19 11:05:14;;;;;;;2.50;2.30;;;;;;;34.18;34.37;99934.63;4973787;28;20106;-84
2022/05/19 11:08:03;;;;;;;6.90;2.38;;;;;;;34.43;34.76;99940.84;4968573;28;20050;-84
2022/05/19 11:11:01;;;;;;;3.92;2.50;;;;;;;34.58;34.07;99926.66;4960913;28;20051;-83
2022/05/19 11:13:38;;;;;;;3.88;2.33;;;;;;;34.65;33.09;99921.09;4955994;29;20051;-84
2022/05/19 11:16:22;;;;;;;2.42;2.22;;;;;;;34.56;32.49;99915.97;4938758;29;20055;-83
2022/05/19 11:19:14;;;;;;;2.72;2.40;;;;;;;34.34;33.00;99918.53;4954576;29;20055;-83
2022/05/19 11:22:04;;;;;;;4.30;2.10;;;;;;;34.14;33.13;99913.50;4954641;29;20055;-83
2022/05/19 11:26:23;;;;;;;4.72;2.45;;;;;;;33.91;33.24;99904.25;4954644;29;20070;-84
2022/05/19 11:27:31;;;;;;;2.25;2.05;;;;;;;33.77;33.21;99901.78;4955353;29;20066;-84
2022/05/19 11:30:06;;;;;;;3.92;2.22;;;;;;;33.67;33.43;99896.06;4953317;29;20047;-84
2022/05/19 11:32:36;;;;;;;3.28;2.33;;;;;;;33.65;33.35;99892.75;4954416;29;20047;-83
2022/05/19 11:35:20;;;;;;;2.88;1.95;;;;;;;33.74;33.86;99902.25;4937860;29;20052;-84
2022/05/19 11:37:59;;;;;;;2.13;1.88;;;;;;;33.97;34.01;99906.00;4954471;29;20055;-84
2022/05/19 11:40:56;;;;;;;4.20;2.30;;;;;;;34.30;33.69;99899.06;4936941;29;20102;-85
2022/05/19 11:43:45;;;;;;;3.28;2.33;;;;;;;34.69;32.74;99903.13;4952082;29;20102;-84
2022/05/19 11:46:17;;;;;;;3.50;2.30;;;;;;;35.00;32.36;99898.19;4953376;29;20054;-84
2022/05/19 11:55:13;;;;;;;2.10;1.85;;;;;;;35.59;31.52;99896.13;4953832;29;20051;-84
2022/05/19 11:57:48;;;;;;;6.13;2.08;;;;;;;35.87;31.67;99897.06;4954058;29;20047;-84
2022/05/19 12:00:50;;;;;;;3.42;2.20;;;;;;;36.15;32.44;99891.66;4953461;29;20509;-85
2022/05/19 12:03:29;;;;;;;2.80;2.28;;;;;;;36.51;30.99;99894.84;4953975;29;20134;-84
2022/05/19 12:06:12;;;;;;;2.50;1.95;;;;;;;36.84;30.13;99889.44;4954110;29;20465;-83
2022/05/19 12:08:51;;;;;;;;;;;;;;;37.10;32.36;99892.38;4954396;29;20062;-84
2022/05/19 12:11:29;;;;;;;2.13;1.70;;;;;;;37.37;30.52;99880.56;4953270;29;19950;-84